sensor_id;sensor_type;location;lat;lon;timestamp;temperature;humidity
6758;DHT22;3416;53.074;8.822;2022-10-16T00:01:15;14.30;99.90
6758;DHT22;3416;53.074;8.822;2022-10-16T00:03:44;14.30;99.90
6758;DHT22;3416;53.074;8.822;2022-10-16T00:06:11;14.30;99.90
6758;DHT22;3416;53.074;8.822;2022-10-16T00:08:40;14.20;99.90
6758;DHT22;3416;53.074;8.822;2022-10-16T00:11:09;14.30;99.90
6758;DHT22;3416;53.074;8.822;2022-10-16T00:13:40;14.20;99.90
6758;DHT22;3416;53.074;8.822;2022-10-16T00:16:08;14.20;99.90
6758;DHT22;3416;53.074;8.822;2022-10-16T00:18:37;14.10;99.90
6758;DHT22;3416;53.074;8.822;2022-10-16T00:21:06;14.10;99.90
6758;DHT22;3416;53.074;8.822;2022-10-16T00:23:33;14.20;99.90
6758;DHT22;3416;53.074;8.822;2022-10-16T00:26:03;14.20;99.90
6758;DHT22;3416;53.074;8.822;2022-10-16T00:28:30;14.10;99.90
6758;DHT22;3416;53.074;8.822;2022-10-16T00:30:58;14.10;99.90
6758;DHT22;3416;53.074;8.822;2022-10-16T00:33:25;14.00;99.90
6758;DHT22;3416;53.074;8.822;2022-10-16T00:35:57;14.00;99.90
6758;DHT22;3416;53.074;8.822;2022-10-16T00:38:24;14.00;99.90
6758;DHT22;3416;53.074;8.822;2022-10-16T00:40:51;14.10;99.90
6758;DHT22;3416;53.074;8.822;2022-10-16T00:43:35;13.80;99.90
6758;DHT22;3416;53.074;8.822;2022-10-16T00:46:07;13.80;99.90
6758;DHT22;3416;53.074;8.822;2022-10-16T00:48:35;13.80;99.90
6758;DHT22;3416;53.074;8.822;2022-10-16T00:51:04;13.70;99.90
6758;DHT22;3416;53.074;8.822;2022-10-16T00:53:31;13.70;99.90
6758;DHT22;3416;53.074;8.822;2022-10-16T00:55:58;13.70;99.90
6758;DHT22;3416;53.074;8.822;2022-10-16T00:58:25;13.70;99.90
6758;DHT22;3416;53.074;8.822;2022-10-16T01:00:52;13.70;99.90
6758;DHT22;3416;53.074;8.822;2022-10-16T01:03:25;13.60;99.90
6758;DHT22;3416;53.074;8.822;2022-10-16T01:06:06;13.50;99.90
6758;DHT22;3416;53.074;8.822;2022-10-16T01:08:46;13.50;99.90
6758;DHT22;3416;53.074;8.822;2022-10-16T01:11:22;13.50;99.90
6758;DHT22;3416;53.074;8.822;2022-10-16T01:13:54;13.40;99.90
6758;DHT22;3416;53.074;8.822;2022-10-16T01:16:30;13.40;99.90
6758;DHT22;3416;53.074;8.822;2022-10-16T01:19:08;13.40;99.90
6758;DHT22;3416;53.074;8.822;2022-10-16T01:21:39;13.40;99.90
6758;DHT22;3416;53.074;8.822;2022-10-16T01:24:14;13.40;99.90
6758;DHT22;3416;53.074;8.822;2022-10-16T01:27:05;13.40;99.90
6758;DHT22;3416;53.074;8.822;2022-10-16T01:29:36;13.50;99.90
6758;DHT22;3416;53.074;8.822;2022-10-16T01:32:10;13.40;99.90
6758;DHT22;3416;53.074;8.822;2022-10-16T01:34:44;13.30;99.90
6758;DHT22;3416;53.074;8.822;2022-10-16T01:37:15;13.30;99.90
6758;DHT22;3416;53.074;8.822;2022-10-16T01:39:47;13.30;99.90
6758;DHT22;3416;53.074;8.822;2022-10-16T01:42:20;13.20;99.90
6758;DHT22;3416;53.074;8.822;2022-10-16T01:44:50;13.20;99.90
6758;DHT22;3416;53.074;8.822;2022-10-16T01:47:19;13.10;99.90
6758;DHT22;3416;53.074;8.822;2022-10-16T01:49:46;13.00;99.90
6758;DHT22;3416;53.074;8.822;2022-10-16T01:52:19;13.10;99.90
6758;DHT22;3416;53.074;8.822;2022-10-16T01:54:50;13.10;99.90
6758;DHT22;3416;53.074;8.822;2022-10-16T01:57:22;13.10;99.90
6758;DHT22;3416;53.074;8.822;2022-10-16T01:59:54;13.10;99.90
6758;DHT22;3416;53.074;8.822;2022-10-16T02:02:24;13.20;99.90
6758;DHT22;3416;53.074;8.822;2022-10-16T02:04:57;13.20;99.90
6758;DHT22;3416;53.074;8.822;2022-10-16T02:07:24;13.20;99.90
6758;DHT22;3416;53.074;8.822;2022-10-16T02:09:51;13.10;99.90
6758;DHT22;3416;53.074;8.822;2022-10-16T02:12:23;13.10;99.90
6758;DHT22;3416;53.074;8.822;2022-10-16T02:14:52;13.20;99.90
6758;DHT22;3416;53.074;8.822;2022-10-16T02:17:20;13.10;99.90
6758;DHT22;3416;53.074;8.822;2022-10-16T02:19:49;13.10;99.90
6758;DHT22;3416;53.074;8.822;2022-10-16T02:22:20;13.00;99.90
6758;DHT22;3416;53.074;8.822;2022-10-16T02:24:53;13.00;99.90
6758;DHT22;3416;53.074;8.822;2022-10-16T02:27:26;13.10;99.90
6758;DHT22;3416;53.074;8.822;2022-10-16T02:29:58;13.00;99.90
6758;DHT22;3416;53.074;8.822;2022-10-16T02:32:30;13.10;99.90
6758;DHT22;3416;53.074;8.822;2022-10-16T02:34:58;13.10;99.90
6758;DHT22;3416;53.074;8.822;2022-10-16T02:37:27;13.10;99.90
6758;DHT22;3416;53.074;8.822;2022-10-16T02:39:55;13.10;99.90
6758;DHT22;3416;53.074;8.822;2022-10-16T02:42:29;13.10;99.90
6758;DHT22;3416;53.074;8.822;2022-10-16T02:44:59;13.00;99.90
6758;DHT22;3416;53.074;8.822;2022-10-16T02:47:26;13.00;99.90
6758;DHT22;3416;53.074;8.822;2022-10-16T02:49:53;13.00;99.90
6758;DHT22;3416;53.074;8.822;2022-10-16T02:52:20;13.00;99.90
6758;DHT22;3416;53.074;8.822;2022-10-16T02:54:46;13.00;99.90
6758;DHT22;3416;53.074;8.822;2022-10-16T02:57:13;13.00;99.90
6758;DHT22;3416;53.074;8.822;2022-10-16T02:59:41;13.00;99.90
6758;DHT22;3416;53.074;8.822;2022-10-16T03:02:09;13.00;99.90
6758;DHT22;3416;53.074;8.822;2022-10-16T03:04:36;13.00;99.90
6758;DHT22;3416;53.074;8.822;2022-10-16T03:07:03;13.00;99.90
6758;DHT22;3416;53.074;8.822;2022-10-16T03:09:30;13.00;99.90
6758;DHT22;3416;53.074;8.822;2022-10-16T03:11:57;13.00;99.90
6758;DHT22;3416;53.074;8.822;2022-10-16T03:14:24;13.00;99.90
6758;DHT22;3416;53.074;8.822;2022-10-16T03:16:52;12.90;99.90
6758;DHT22;3416;53.074;8.822;2022-10-16T03:19:19;13.00;99.90
6758;DHT22;3416;53.074;8.822;2022-10-16T03:21:46;12.90;99.90
6758;DHT22;3416;53.074;8.822;2022-10-16T03:24:13;13.00;99.90
6758;DHT22;3416;53.074;8.822;2022-10-16T03:26:39;13.00;99.90
6758;DHT22;3416;53.074;8.822;2022-10-16T03:29:06;13.00;99.90
6758;DHT22;3416;53.074;8.822;2022-10-16T03:31:33;13.00;99.90
6758;DHT22;3416;53.074;8.822;2022-10-16T03:34:02;13.10;99.90
6758;DHT22;3416;53.074;8.822;2022-10-16T03:36:28;13.10;99.90
6758;DHT22;3416;53.074;8.822;2022-10-16T03:38:55;13.10;99.90
6758;DHT22;3416;53.074;8.822;2022-10-16T03:41:22;13.10;99.90
6758;DHT22;3416;53.074;8.822;2022-10-16T03:43:49;13.10;99.90
6758;DHT22;3416;53.074;8.822;2022-10-16T03:46:16;13.00;99.90
6758;DHT22;3416;53.074;8.822;2022-10-16T03:48:43;13.00;99.90
6758;DHT22;3416;53.074;8.822;2022-10-16T03:51:11;13.00;99.90
6758;DHT22;3416;53.074;8.822;2022-10-16T03:53:38;13.00;99.90
6758;DHT22;3416;53.074;8.822;2022-10-16T03:56:05;13.10;99.90
6758;DHT22;3416;53.074;8.822;2022-10-16T03:58:32;13.10;99.90
6758;DHT22;3416;53.074;8.822;2022-10-16T04:00:59;13.10;99.90
6758;DHT22;3416;53.074;8.822;2022-10-16T04:03:26;13.10;99.90
6758;DHT22;3416;53.074;8.822;2022-10-16T04:05:53;13.10;99.90
6758;DHT22;3416;53.074;8.822;2022-10-16T04:08:21;13.10;99.90
6758;DHT22;3416;53.074;8.822;2022-10-16T04:10:48;13.20;99.90
6758;DHT22;3416;53.074;8.822;2022-10-16T04:13:15;13.10;99.90
6758;DHT22;3416;53.074;8.822;2022-10-16T04:15:42;13.10;99.90
6758;DHT22;3416;53.074;8.822;2022-10-16T04:18:09;13.20;99.90
6758;DHT22;3416;53.074;8.822;2022-10-16T04:20:36;13.10;99.90
6758;DHT22;3416;53.074;8.822;2022-10-16T04:23:03;13.10;99.90
6758;DHT22;3416;53.074;8.822;2022-10-16T04:25:32;13.10;99.90
6758;DHT22;3416;53.074;8.822;2022-10-16T04:27:59;13.10;99.90
6758;DHT22;3416;53.074;8.822;2022-10-16T04:30:25;13.10;99.90
6758;DHT22;3416;53.074;8.822;2022-10-16T04:32:53;13.20;99.90
6758;DHT22;3416;53.074;8.822;2022-10-16T04:35:21;13.10;99.90
6758;DHT22;3416;53.074;8.822;2022-10-16T04:37:48;13.20;99.90
6758;DHT22;3416;53.074;8.822;2022-10-16T04:40:16;13.20;99.90
6758;DHT22;3416;53.074;8.822;2022-10-16T04:42:44;13.20;99.90
6758;DHT22;3416;53.074;8.822;2022-10-16T04:45:11;13.20;99.90
6758;DHT22;3416;53.074;8.822;2022-10-16T04:47:38;13.10;99.90
6758;DHT22;3416;53.074;8.822;2022-10-16T04:50:05;13.10;99.90
6758;DHT22;3416;53.074;8.822;2022-10-16T04:52:32;13.10;99.90
6758;DHT22;3416;53.074;8.822;2022-10-16T04:54:59;13.20;99.90
6758;DHT22;3416;53.074;8.822;2022-10-16T04:57:28;13.10;99.90
6758;DHT22;3416;53.074;8.822;2022-10-16T04:59:57;13.20;99.90
6758;DHT22;3416;53.074;8.822;2022-10-16T05:02:24;13.20;99.90
6758;DHT22;3416;53.074;8.822;2022-10-16T05:04:51;13.20;99.90
6758;DHT22;3416;53.074;8.822;2022-10-16T05:07:18;13.20;99.90
6758;DHT22;3416;53.074;8.822;2022-10-16T05:09:46;13.20;99.90
6758;DHT22;3416;53.074;8.822;2022-10-16T05:12:13;13.30;99.90
6758;DHT22;3416;53.074;8.822;2022-10-16T05:14:39;13.20;99.90
6758;DHT22;3416;53.074;8.822;2022-10-16T05:17:08;13.20;99.90
6758;DHT22;3416;53.074;8.822;2022-10-16T05:19:35;13.20;99.90
6758;DHT22;3416;53.074;8.822;2022-10-16T05:22:02;13.20;99.90
6758;DHT22;3416;53.074;8.822;2022-10-16T05:24:29;13.30;99.90
6758;DHT22;3416;53.074;8.822;2022-10-16T05:26:56;13.40;99.90
6758;DHT22;3416;53.074;8.822;2022-10-16T05:29:23;13.40;99.90
6758;DHT22;3416;53.074;8.822;2022-10-16T05:31:51;13.40;99.90
6758;DHT22;3416;53.074;8.822;2022-10-16T05:34:20;13.40;99.90
6758;DHT22;3416;53.074;8.822;2022-10-16T05:36:47;13.50;99.90
6758;DHT22;3416;53.074;8.822;2022-10-16T05:39:15;13.50;99.90
6758;DHT22;3416;53.074;8.822;2022-10-16T05:41:42;13.50;99.90
6758;DHT22;3416;53.074;8.822;2022-10-16T05:44:09;13.50;99.90
6758;DHT22;3416;53.074;8.822;2022-10-16T05:46:36;13.40;99.90
6758;DHT22;3416;53.074;8.822;2022-10-16T05:49:03;13.50;99.90
6758;DHT22;3416;53.074;8.822;2022-10-16T05:51:31;13.50;99.90
6758;DHT22;3416;53.074;8.822;2022-10-16T05:53:58;13.50;99.90
6758;DHT22;3416;53.074;8.822;2022-10-16T05:56:25;13.50;99.90
6758;DHT22;3416;53.074;8.822;2022-10-16T05:58:52;13.50;99.90
6758;DHT22;3416;53.074;8.822;2022-10-16T06:01:19;13.60;99.90
6758;DHT22;3416;53.074;8.822;2022-10-16T06:03:49;13.70;99.90
6758;DHT22;3416;53.074;8.822;2022-10-16T06:06:18;13.60;99.90
6758;DHT22;3416;53.074;8.822;2022-10-16T06:08:47;13.70;99.90
6758;DHT22;3416;53.074;8.822;2022-10-16T06:11:16;13.70;99.90
6758;DHT22;3416;53.074;8.822;2022-10-16T06:13:44;13.70;99.90
6758;DHT22;3416;53.074;8.822;2022-10-16T06:16:12;13.60;99.90
6758;DHT22;3416;53.074;8.822;2022-10-16T06:18:39;13.60;99.90
6758;DHT22;3416;53.074;8.822;2022-10-16T06:21:09;13.70;99.90
6758;DHT22;3416;53.074;8.822;2022-10-16T06:23:37;13.70;99.90
6758;DHT22;3416;53.074;8.822;2022-10-16T06:26:06;13.80;99.90
6758;DHT22;3416;53.074;8.822;2022-10-16T06:28:33;13.80;99.90
6758;DHT22;3416;53.074;8.822;2022-10-16T06:31:01;13.80;99.90
6758;DHT22;3416;53.074;8.822;2022-10-16T06:33:28;13.90;99.90
6758;DHT22;3416;53.074;8.822;2022-10-16T06:36:00;13.90;99.90
6758;DHT22;3416;53.074;8.822;2022-10-16T06:38:27;14.00;99.90
6758;DHT22;3416;53.074;8.822;2022-10-16T06:40:54;14.00;99.90
6758;DHT22;3416;53.074;8.822;2022-10-16T06:43:22;14.00;99.90
6758;DHT22;3416;53.074;8.822;2022-10-16T06:45:51;14.10;99.90
6758;DHT22;3416;53.074;8.822;2022-10-16T06:48:19;14.00;99.90
6758;DHT22;3416;53.074;8.822;2022-10-16T06:50:59;14.20;99.90
6758;DHT22;3416;53.074;8.822;2022-10-16T06:53:27;14.40;99.90
6758;DHT22;3416;53.074;8.822;2022-10-16T06:55:54;14.40;99.90
6758;DHT22;3416;53.074;8.822;2022-10-16T06:58:23;14.40;99.90
6758;DHT22;3416;53.074;8.822;2022-10-16T07:00:55;14.80;99.90
6758;DHT22;3416;53.074;8.822;2022-10-16T07:03:23;15.60;99.90
6758;DHT22;3416;53.074;8.822;2022-10-16T07:05:50;15.90;99.90
6758;DHT22;3416;53.074;8.822;2022-10-16T07:08:17;16.20;99.90
6758;DHT22;3416;53.074;8.822;2022-10-16T07:10:44;16.70;99.90
6758;DHT22;3416;53.074;8.822;2022-10-16T07:13:10;17.10;99.90
6758;DHT22;3416;53.074;8.822;2022-10-16T07:15:40;17.30;99.90
6758;DHT22;3416;53.074;8.822;2022-10-16T07:18:07;17.30;99.90
6758;DHT22;3416;53.074;8.822;2022-10-16T07:20:34;17.60;99.90
6758;DHT22;3416;53.074;8.822;2022-10-16T07:23:02;17.90;99.90
6758;DHT22;3416;53.074;8.822;2022-10-16T07:25:29;18.10;99.90
6758;DHT22;3416;53.074;8.822;2022-10-16T07:27:56;18.10;99.90
6758;DHT22;3416;53.074;8.822;2022-10-16T07:30:23;18.00;99.90
6758;DHT22;3416;53.074;8.822;2022-10-16T07:32:51;18.00;99.90
6758;DHT22;3416;53.074;8.822;2022-10-16T07:35:18;18.30;99.90
6758;DHT22;3416;53.074;8.822;2022-10-16T07:37:45;18.40;99.90
6758;DHT22;3416;53.074;8.822;2022-10-16T07:40:12;18.20;99.90
6758;DHT22;3416;53.074;8.822;2022-10-16T07:42:39;17.80;99.90
6758;DHT22;3416;53.074;8.822;2022-10-16T07:45:07;17.40;99.90
6758;DHT22;3416;53.074;8.822;2022-10-16T07:47:33;17.20;99.90
6758;DHT22;3416;53.074;8.822;2022-10-16T07:50:02;17.00;99.90
6758;DHT22;3416;53.074;8.822;2022-10-16T07:52:29;16.90;99.90
6758;DHT22;3416;53.074;8.822;2022-10-16T07:54:56;16.90;99.90
6758;DHT22;3416;53.074;8.822;2022-10-16T07:57:23;16.50;99.90
6758;DHT22;3416;53.074;8.822;2022-10-16T07:59:51;15.90;99.90
6758;DHT22;3416;53.074;8.822;2022-10-16T08:02:24;15.90;99.90
6758;DHT22;3416;53.074;8.822;2022-10-16T08:04:51;15.90;99.90
6758;DHT22;3416;53.074;8.822;2022-10-16T08:07:18;16.10;99.90
6758;DHT22;3416;53.074;8.822;2022-10-16T08:09:49;16.50;99.90
6758;DHT22;3416;53.074;8.822;2022-10-16T08:12:15;17.20;99.90
6758;DHT22;3416;53.074;8.822;2022-10-16T08:14:42;18.30;99.90
6758;DHT22;3416;53.074;8.822;2022-10-16T08:17:09;19.00;99.90
6758;DHT22;3416;53.074;8.822;2022-10-16T08:19:37;19.30;99.90
6758;DHT22;3416;53.074;8.822;2022-10-16T08:22:04;19.40;99.90
6758;DHT22;3416;53.074;8.822;2022-10-16T08:24:31;19.50;99.90
6758;DHT22;3416;53.074;8.822;2022-10-16T08:27:00;19.50;99.90
6758;DHT22;3416;53.074;8.822;2022-10-16T08:29:27;20.10;99.90
6758;DHT22;3416;53.074;8.822;2022-10-16T08:31:54;19.80;99.90
6758;DHT22;3416;53.074;8.822;2022-10-16T08:34:22;19.70;99.90
6758;DHT22;3416;53.074;8.822;2022-10-16T08:36:52;20.40;99.90
6758;DHT22;3416;53.074;8.822;2022-10-16T08:39:19;20.20;99.90
6758;DHT22;3416;53.074;8.822;2022-10-16T08:45:08;21.40;99.90
6758;DHT22;3416;53.074;8.822;2022-10-16T08:47:47;22.10;99.90
6758;DHT22;3416;53.074;8.822;2022-10-16T08:50:21;22.80;99.90
6758;DHT22;3416;53.074;8.822;2022-10-16T08:52:51;23.00;99.40
6758;DHT22;3416;53.074;8.822;2022-10-16T08:55:32;22.30;99.90
6758;DHT22;3416;53.074;8.822;2022-10-16T08:58:01;21.80;99.90
6758;DHT22;3416;53.074;8.822;2022-10-16T09:00:28;22.00;99.90
6758;DHT22;3416;53.074;8.822;2022-10-16T09:03:03;21.60;99.90
6758;DHT22;3416;53.074;8.822;2022-10-16T09:05:52;21.80;99.90
6758;DHT22;3416;53.074;8.822;2022-10-16T09:08:29;22.40;99.90
6758;DHT22;3416;53.074;8.822;2022-10-16T09:10:59;22.40;99.90
6758;DHT22;3416;53.074;8.822;2022-10-16T09:13:34;22.50;99.80
6758;DHT22;3416;53.074;8.822;2022-10-16T09:16:12;23.50;98.30
6758;DHT22;3416;53.074;8.822;2022-10-16T09:18:45;23.30;96.50
6758;DHT22;3416;53.074;8.822;2022-10-16T09:21:18;23.20;96.70
6758;DHT22;3416;53.074;8.822;2022-10-16T09:23:48;22.70;96.50
6758;DHT22;3416;53.074;8.822;2022-10-16T09:26:16;23.00;96.70
6758;DHT22;3416;53.074;8.822;2022-10-16T09:28:45;23.40;97.00
6758;DHT22;3416;53.074;8.822;2022-10-16T09:31:22;22.40;96.90
6758;DHT22;3416;53.074;8.822;2022-10-16T09:33:52;22.50;97.00
6758;DHT22;3416;53.074;8.822;2022-10-16T09:36:21;21.40;99.30
6758;DHT22;3416;53.074;8.822;2022-10-16T09:39:00;20.40;99.90
6758;DHT22;3416;53.074;8.822;2022-10-16T09:41:27;19.60;99.90
6758;DHT22;3416;53.074;8.822;2022-10-16T09:43:56;19.50;99.90
6758;DHT22;3416;53.074;8.822;2022-10-16T09:46:28;18.90;99.90
6758;DHT22;3416;53.074;8.822;2022-10-16T09:48:57;19.10;99.90
6758;DHT22;3416;53.074;8.822;2022-10-16T09:51:27;19.40;99.90
6758;DHT22;3416;53.074;8.822;2022-10-16T09:53:58;19.00;99.90
6758;DHT22;3416;53.074;8.822;2022-10-16T09:56:27;19.20;99.90
6758;DHT22;3416;53.074;8.822;2022-10-16T09:58:56;20.10;99.90
6758;DHT22;3416;53.074;8.822;2022-10-16T10:01:28;20.60;99.90
6758;DHT22;3416;53.074;8.822;2022-10-16T10:03:57;21.00;99.90
6758;DHT22;3416;53.074;8.822;2022-10-16T10:06:30;21.60;99.90
6758;DHT22;3416;53.074;8.822;2022-10-16T10:09:04;21.00;99.90
6758;DHT22;3416;53.074;8.822;2022-10-16T10:11:48;21.10;99.90
6758;DHT22;3416;53.074;8.822;2022-10-16T10:14:19;21.10;99.90
6758;DHT22;3416;53.074;8.822;2022-10-16T10:16:47;21.20;99.90
6758;DHT22;3416;53.074;8.822;2022-10-16T10:19:15;21.50;99.90
6758;DHT22;3416;53.074;8.822;2022-10-16T10:21:43;21.20;99.60
6758;DHT22;3416;53.074;8.822;2022-10-16T10:24:15;20.90;99.90
6758;DHT22;3416;53.074;8.822;2022-10-16T10:26:49;20.50;99.90
6758;DHT22;3416;53.074;8.822;2022-10-16T10:29:31;20.30;99.90
6758;DHT22;3416;53.074;8.822;2022-10-16T10:32:09;19.70;99.90
6758;DHT22;3416;53.074;8.822;2022-10-16T10:34:50;19.80;99.90
6758;DHT22;3416;53.074;8.822;2022-10-16T10:37:33;19.90;99.90
6758;DHT22;3416;53.074;8.822;2022-10-16T10:40:15;19.50;99.90
6758;DHT22;3416;53.074;8.822;2022-10-16T10:42:49;19.40;99.90
6758;DHT22;3416;53.074;8.822;2022-10-16T10:45:20;19.40;99.90
6758;DHT22;3416;53.074;8.822;2022-10-16T10:47:59;19.30;99.90
6758;DHT22;3416;53.074;8.822;2022-10-16T10:50:37;19.40;99.90
6758;DHT22;3416;53.074;8.822;2022-10-16T10:53:13;19.20;99.90
6758;DHT22;3416;53.074;8.822;2022-10-16T10:55:48;19.20;99.90
6758;DHT22;3416;53.074;8.822;2022-10-16T10:58:40;19.20;99.90
6758;DHT22;3416;53.074;8.822;2022-10-16T11:01:13;19.50;99.90
6758;DHT22;3416;53.074;8.822;2022-10-16T11:03:57;19.50;99.90
6758;DHT22;3416;53.074;8.822;2022-10-16T11:06:26;19.60;99.90
6758;DHT22;3416;53.074;8.822;2022-10-16T11:09:00;19.60;99.90
6758;DHT22;3416;53.074;8.822;2022-10-16T11:11:32;19.30;99.90
6758;DHT22;3416;53.074;8.822;2022-10-16T11:14:04;19.30;99.90
6758;DHT22;3416;53.074;8.822;2022-10-16T11:16:37;19.20;99.90
6758;DHT22;3416;53.074;8.822;2022-10-16T11:19:12;19.10;99.90
6758;DHT22;3416;53.074;8.822;2022-10-16T11:21:45;19.00;99.90
6758;DHT22;3416;53.074;8.822;2022-10-16T11:24:19;19.00;99.90
6758;DHT22;3416;53.074;8.822;2022-10-16T11:26:50;18.90;99.90
6758;DHT22;3416;53.074;8.822;2022-10-16T11:29:25;19.00;99.90
6758;DHT22;3416;53.074;8.822;2022-10-16T11:31:57;19.20;99.90
6758;DHT22;3416;53.074;8.822;2022-10-16T11:34:28;19.30;99.90
6758;DHT22;3416;53.074;8.822;2022-10-16T11:37:02;19.30;99.90
6758;DHT22;3416;53.074;8.822;2022-10-16T11:39:38;19.10;99.90
6758;DHT22;3416;53.074;8.822;2022-10-16T11:42:11;18.90;99.90
6758;DHT22;3416;53.074;8.822;2022-10-16T11:44:46;18.90;99.90
6758;DHT22;3416;53.074;8.822;2022-10-16T11:47:26;19.10;99.90
6758;DHT22;3416;53.074;8.822;2022-10-16T11:49:58;19.10;99.90
6758;DHT22;3416;53.074;8.822;2022-10-16T11:52:30;19.00;99.90
6758;DHT22;3416;53.074;8.822;2022-10-16T11:55:04;18.90;99.90
6758;DHT22;3416;53.074;8.822;2022-10-16T11:57:38;19.00;99.90
6758;DHT22;3416;53.074;8.822;2022-10-16T12:00:10;19.00;99.90
6758;DHT22;3416;53.074;8.822;2022-10-16T12:02:50;19.10;99.90
6758;DHT22;3416;53.074;8.822;2022-10-16T12:05:25;18.90;99.90
6758;DHT22;3416;53.074;8.822;2022-10-16T12:08:04;18.60;99.90
6758;DHT22;3416;53.074;8.822;2022-10-16T12:10:33;18.50;99.90
6758;DHT22;3416;53.074;8.822;2022-10-16T12:13:04;18.50;99.90
6758;DHT22;3416;53.074;8.822;2022-10-16T12:15:33;18.70;99.90
6758;DHT22;3416;53.074;8.822;2022-10-16T12:18:01;18.70;99.90
6758;DHT22;3416;53.074;8.822;2022-10-16T12:20:29;18.80;99.90
6758;DHT22;3416;53.074;8.822;2022-10-16T12:22:59;18.70;99.90
6758;DHT22;3416;53.074;8.822;2022-10-16T12:25:30;18.70;99.90
6758;DHT22;3416;53.074;8.822;2022-10-16T12:28:04;18.80;99.90
6758;DHT22;3416;53.074;8.822;2022-10-16T12:30:33;18.70;99.90
6758;DHT22;3416;53.074;8.822;2022-10-16T12:33:02;18.80;99.90
6758;DHT22;3416;53.074;8.822;2022-10-16T12:35:32;18.90;99.90
6758;DHT22;3416;53.074;8.822;2022-10-16T12:38:08;19.00;99.90
6758;DHT22;3416;53.074;8.822;2022-10-16T12:40:39;18.80;99.90
6758;DHT22;3416;53.074;8.822;2022-10-16T12:43:25;18.70;99.90
6758;DHT22;3416;53.074;8.822;2022-10-16T12:46:00;18.70;99.90
6758;DHT22;3416;53.074;8.822;2022-10-16T12:48:27;18.70;99.90
6758;DHT22;3416;53.074;8.822;2022-10-16T12:50:55;18.70;99.90
6758;DHT22;3416;53.074;8.822;2022-10-16T12:53:24;18.70;99.90
6758;DHT22;3416;53.074;8.822;2022-10-16T12:56:03;18.60;99.80
6758;DHT22;3416;53.074;8.822;2022-10-16T12:58:52;18.60;99.40
6758;DHT22;3416;53.074;8.822;2022-10-16T13:01:34;18.40;99.50
6758;DHT22;3416;53.074;8.822;2022-10-16T13:04:27;18.50;99.60
6758;DHT22;3416;53.074;8.822;2022-10-16T13:07:09;18.30;99.90
6758;DHT22;3416;53.074;8.822;2022-10-16T13:09:47;18.30;99.90
6758;DHT22;3416;53.074;8.822;2022-10-16T13:12:36;18.30;99.90
6758;DHT22;3416;53.074;8.822;2022-10-16T13:15:24;18.40;99.90
6758;DHT22;3416;53.074;8.822;2022-10-16T13:17:58;18.50;99.90
6758;DHT22;3416;53.074;8.822;2022-10-16T13:20:35;18.60;99.60
6758;DHT22;3416;53.074;8.822;2022-10-16T13:23:13;18.70;99.40
6758;DHT22;3416;53.074;8.822;2022-10-16T13:25:55;18.80;99.50
6758;DHT22;3416;53.074;8.822;2022-10-16T13:28:29;18.90;99.50
6758;DHT22;3416;53.074;8.822;2022-10-16T13:30:59;19.10;99.40
6758;DHT22;3416;53.074;8.822;2022-10-16T13:33:31;19.20;99.00
6758;DHT22;3416;53.074;8.822;2022-10-16T13:35:59;19.20;98.80
6758;DHT22;3416;53.074;8.822;2022-10-16T13:38:28;19.30;97.90
6758;DHT22;3416;53.074;8.822;2022-10-16T13:40:58;19.20;97.50
6758;DHT22;3416;53.074;8.822;2022-10-16T13:43:28;19.00;97.60
6758;DHT22;3416;53.074;8.822;2022-10-16T13:46:11;18.80;97.70
6758;DHT22;3416;53.074;8.822;2022-10-16T13:48:38;18.90;98.50
6758;DHT22;3416;53.074;8.822;2022-10-16T13:51:12;18.80;98.70
6758;DHT22;3416;53.074;8.822;2022-10-16T13:53:40;18.80;98.50
6758;DHT22;3416;53.074;8.822;2022-10-16T13:56:11;18.80;98.80
6758;DHT22;3416;53.074;8.822;2022-10-16T13:58:38;18.80;98.90
6758;DHT22;3416;53.074;8.822;2022-10-16T14:01:16;18.80;98.90
6758;DHT22;3416;53.074;8.822;2022-10-16T14:03:43;18.80;98.70
6758;DHT22;3416;53.074;8.822;2022-10-16T14:06:13;18.90;99.30
6758;DHT22;3416;53.074;8.822;2022-10-16T14:08:45;18.90;99.00
6758;DHT22;3416;53.074;8.822;2022-10-16T14:11:20;18.70;98.40
6758;DHT22;3416;53.074;8.822;2022-10-16T14:13:48;18.70;98.20
6758;DHT22;3416;53.074;8.822;2022-10-16T14:16:19;18.60;97.60
6758;DHT22;3416;53.074;8.822;2022-10-16T14:18:52;18.50;97.50
6758;DHT22;3416;53.074;8.822;2022-10-16T14:21:22;18.50;97.80
6758;DHT22;3416;53.074;8.822;2022-10-16T14:23:50;18.60;98.00
6758;DHT22;3416;53.074;8.822;2022-10-16T14:26:20;18.60;97.90
6758;DHT22;3416;53.074;8.822;2022-10-16T14:28:51;18.60;97.60
6758;DHT22;3416;53.074;8.822;2022-10-16T14:31:31;18.70;97.60
6758;DHT22;3416;53.074;8.822;2022-10-16T14:33:58;18.70;97.40
6758;DHT22;3416;53.074;8.822;2022-10-16T14:36:26;18.80;98.10
6758;DHT22;3416;53.074;8.822;2022-10-16T14:38:59;18.80;97.70
6758;DHT22;3416;53.074;8.822;2022-10-16T14:41:28;18.70;97.60
6758;DHT22;3416;53.074;8.822;2022-10-16T14:43:56;18.60;98.00
6758;DHT22;3416;53.074;8.822;2022-10-16T14:46:32;18.50;98.10
6758;DHT22;3416;53.074;8.822;2022-10-16T14:49:03;18.60;98.20
6758;DHT22;3416;53.074;8.822;2022-10-16T14:51:31;18.60;98.50
6758;DHT22;3416;53.074;8.822;2022-10-16T14:53:58;18.60;98.50
6758;DHT22;3416;53.074;8.822;2022-10-16T14:56:30;18.50;97.90
6758;DHT22;3416;53.074;8.822;2022-10-16T14:58:57;18.40;97.90
6758;DHT22;3416;53.074;8.822;2022-10-16T15:01:24;18.30;97.80
6758;DHT22;3416;53.074;8.822;2022-10-16T15:03:52;18.20;98.40
6758;DHT22;3416;53.074;8.822;2022-10-16T15:06:20;18.20;98.80
6758;DHT22;3416;53.074;8.822;2022-10-16T15:08:47;18.20;98.40
6758;DHT22;3416;53.074;8.822;2022-10-16T15:11:16;18.10;98.90
6758;DHT22;3416;53.074;8.822;2022-10-16T15:13:43;18.10;99.00
6758;DHT22;3416;53.074;8.822;2022-10-16T15:16:12;18.00;99.40
6758;DHT22;3416;53.074;8.822;2022-10-16T15:18:39;18.00;99.60
6758;DHT22;3416;53.074;8.822;2022-10-16T15:21:07;18.00;99.80
6758;DHT22;3416;53.074;8.822;2022-10-16T15:23:34;18.00;99.90
6758;DHT22;3416;53.074;8.822;2022-10-16T15:26:01;17.90;99.90
6758;DHT22;3416;53.074;8.822;2022-10-16T15:28:29;18.00;99.90
6758;DHT22;3416;53.074;8.822;2022-10-16T15:30:57;18.10;99.90
6758;DHT22;3416;53.074;8.822;2022-10-16T15:33:25;18.10;99.90
6758;DHT22;3416;53.074;8.822;2022-10-16T15:35:54;18.00;99.90
6758;DHT22;3416;53.074;8.822;2022-10-16T15:38:23;17.90;99.90
6758;DHT22;3416;53.074;8.822;2022-10-16T15:40:49;17.90;99.90
6758;DHT22;3416;53.074;8.822;2022-10-16T15:43:17;17.90;99.90
6758;DHT22;3416;53.074;8.822;2022-10-16T15:45:44;17.80;99.90
6758;DHT22;3416;53.074;8.822;2022-10-16T15:48:12;17.70;99.90
6758;DHT22;3416;53.074;8.822;2022-10-16T15:50:39;17.70;99.90
6758;DHT22;3416;53.074;8.822;2022-10-16T15:53:08;17.70;99.90
6758;DHT22;3416;53.074;8.822;2022-10-16T15:55:36;17.70;99.90
6758;DHT22;3416;53.074;8.822;2022-10-16T15:58:04;17.70;99.90
6758;DHT22;3416;53.074;8.822;2022-10-16T16:00:31;17.60;99.90
6758;DHT22;3416;53.074;8.822;2022-10-16T16:02:58;17.60;99.90
6758;DHT22;3416;53.074;8.822;2022-10-16T16:05:25;17.60;99.90
6758;DHT22;3416;53.074;8.822;2022-10-16T16:07:53;17.50;99.90
6758;DHT22;3416;53.074;8.822;2022-10-16T16:10:21;17.50;99.90
6758;DHT22;3416;53.074;8.822;2022-10-16T16:12:49;17.50;99.90
6758;DHT22;3416;53.074;8.822;2022-10-16T16:15:19;17.50;99.90
6758;DHT22;3416;53.074;8.822;2022-10-16T16:17:47;17.40;99.90
6758;DHT22;3416;53.074;8.822;2022-10-16T16:20:14;17.30;99.90
6758;DHT22;3416;53.074;8.822;2022-10-16T16:22:42;17.30;99.90
6758;DHT22;3416;53.074;8.822;2022-10-16T16:25:09;17.40;99.90